Time;durP1;ratioP1;P1;durP2;ratioP2;P2;SDS_P1;SDS_P2;PMS_P1;PMS_P2;Temp;Humidity;BMP_temperature;BMP_pressure;BME280_temperature;BME280_humidity;BME280_pressure;Samples;Min_cycle;Max_cycle;Signal;HPM_P1;HPM_P2
2021/08/03 00:00:58;;;;;;;4.70;1.05;;;14.80;99.90;;;;;;5037394;28;20081;-79
2021/08/03 00:03:36;;;;;;;5.30;0.80;;;14.80;99.90;;;;;;5027623;28;20105;-78
2021/08/03 00:06:10;;;;;;;4.07;1.10;;;14.80;99.90;;;;;;5055254;28;20029;-78
2021/08/03 00:08:41;;;;;;;2.17;0.80;;;14.80;99.90;;;;;;5056586;28;20104;-78
2021/08/03 00:11:08;;;;;;;4.17;0.90;;;14.80;99.90;;;;;;5039740;28;20381;-78
2021/08/03 00:13:36;;;;;;;3.50;1.30;;;14.80;99.90;;;;;;5029817;28;20045;-78
2021/08/03 00:16:06;;;;;;;3.00;1.27;;;14.80;99.90;;;;;;5034400;28;20029;-78
2021/08/03 00:18:32;;;;;;;3.00;1.42;;;14.60;99.90;;;;;;5034311;28;20025;-79
2021/08/03 00:20:59;;;;;;;2.40;1.10;;;14.40;99.90;;;;;;5018061;28;20025;-78
2021/08/03 00:23:26;;;;;;;5.13;1.40;;;14.50;99.90;;;;;;5036215;28;20080;-78
2021/08/03 00:25:53;;;;;;;3.35;1.40;;;14.30;99.90;;;;;;5018012;28;20033;-78
2021/08/03 00:28:19;;;;;;;3.50;1.33;;;14.40;99.90;;;;;;5035837;28;20033;-78
2021/08/03 00:30:46;;;;;;;2.50;1.20;;;14.50;99.90;;;;;;5036321;28;20025;-79
2021/08/03 00:33:12;;;;;;;3.45;1.20;;;14.60;99.90;;;;;;5018276;28;20028;-78
2021/08/03 00:35:38;;;;;;;4.07;1.42;;;14.60;99.90;;;;;;5018696;28;20029;-79
2021/08/03 00:38:05;;;;;;;2.38;1.20;;;14.60;99.90;;;;;;5035861;28;20090;-78
2021/08/03 00:40:34;;;;;;;4.68;1.20;;;14.70;99.90;;;;;;5017444;28;20036;-79
2021/08/03 00:43:00;;;;;;;3.22;1.27;;;14.70;99.90;;;;;;5036332;28;20075;-78
2021/08/03 00:45:25;;;;;;;3.10;1.05;;;14.80;99.90;;;;;;5036068;28;20033;-79
2021/08/03 00:47:51;;;;;;;2.92;1.00;;;14.80;99.90;;;;;;5035782;28;20072;-78
2021/08/03 00:50:17;;;;;;;4.38;1.10;;;14.90;99.90;;;;;;5034732;28;20025;-79
2021/08/03 00:52:43;;;;;;;2.38;1.10;;;14.80;99.90;;;;;;5036244;28;20036;-78
2021/08/03 00:55:09;;;;;;;3.35;1.08;;;14.80;99.90;;;;;;5036309;28;20021;-78
2021/08/03 00:57:36;;;;;;;2.05;0.80;;;14.80;99.90;;;;;;5035983;28;20043;-78
2021/08/03 01:00:02;;;;;;;3.08;1.05;;;14.90;99.90;;;;;;5019357;28;20112;-79
2021/08/03 01:02:28;;;;;;;2.15;0.80;;;14.90;99.90;;;;;;5037151;28;20061;-79
2021/08/03 01:04:54;;;;;;;3.60;1.00;;;15.00;99.90;;;;;;5045765;28;20032;-78
2021/08/03 01:07:33;;;;;;;2.38;0.93;;;14.90;99.90;;;;;;5056283;28;20053;-79
2021/08/03 01:10:04;;;;;;;5.22;0.90;;;14.90;99.90;;;;;;5048832;28;20025;-78
2021/08/03 01:12:57;;;;;;;5.63;1.30;;;14.90;99.90;;;;;;5036121;28;20018;-79
2021/08/03 01:15:47;;;;;;;2.55;1.00;;;14.80;99.90;;;;;;5034416;28;20120;-79
2021/08/03 01:18:35;;;;;;;5.82;1.08;;;14.70;99.90;;;;;;5035302;28;20056;-79
2021/08/03 01:21:19;;;;;;;3.67;1.08;;;14.70;99.90;;;;;;5036345;28;20033;-78
2021/08/03 01:24:18;;;;;;;2.83;1.00;;;14.70;99.90;;;;;;5035662;28;20389;-78
2021/08/03 01:27:19;;;;;;;3.13;1.40;;;14.70;99.90;;;;;;5035234;28;20437;-78
2021/08/03 01:29:47;;;;;;;3.70;1.30;;;14.70;99.90;;;;;;5018353;28;20104;-79
2021/08/03 01:32:16;;;;;;;3.63;1.60;;;14.70;99.90;;;;;;5035845;28;20033;-79
2021/08/03 01:34:46;;;;;;;5.88;1.45;;;14.60;99.90;;;;;;5018046;28;20182;-79
2021/08/03 01:37:17;;;;;;;2.90;1.23;;;14.50;99.90;;;;;;5035633;28;20029;-79
2021/08/03 01:39:48;;;;;;;3.13;1.10;;;14.60;99.90;;;;;;5035466;28;20041;-78
2021/08/03 01:42:16;;;;;;;7.33;1.23;;;14.60;99.90;;;;;;5034301;28;20079;-79
2021/08/03 01:44:43;;;;;;;4.00;1.10;;;14.50;99.90;;;;;;5035980;28;20041;-78
2021/08/03 01:47:09;;;;;;;2.13;0.90;;;14.50;99.90;;;;;;5036047;28;20033;-78
2021/08/03 01:49:37;;;;;;;3.95;1.30;;;14.60;99.90;;;;;;5035286;28;20021;-79
2021/08/03 01:52:06;;;;;;;4.13;1.30;;;14.50;99.90;;;;;;5035950;28;20022;-78
2021/08/03 01:54:33;;;;;;;2.30;1.10;;;14.50;99.90;;;;;;5036022;28;20076;-79
2021/08/03 01:57:01;;;;;;;3.88;1.20;;;14.40;99.90;;;;;;5057249;22;20509;-86
2021/08/03 01:59:28;;;;;;;4.18;1.10;;;14.50;99.90;;;;;;5067086;28;20048;-84
2021/08/03 02:01:55;;;;;;;4.22;1.77;;;14.50;99.90;;;;;;5052607;28;20587;-86
2021/08/03 02:04:21;;;;;;;5.50;1.10;;;14.20;99.90;;;;;;5070921;28;20031;-86
2021/08/03 02:06:48;;;;;;;2.83;0.85;;;14.40;99.90;;;;;;5067248;28;20025;-86
2021/08/03 02:09:15;;;;;;;3.70;1.08;;;14.70;99.90;;;;;;5069032;28;20028;-86
2021/08/03 02:11:41;;;;;;;4.57;1.10;;;14.60;99.90;;;;;;5066933;28;20054;-86
2021/08/03 02:14:07;;;;;;;2.65;1.10;;;14.80;99.90;;;;;;5056972;28;20797;-85
2021/08/03 02:16:33;;;;;;;5.10;1.70;;;14.40;99.90;;;;;;5055983;28;20143;-87
2021/08/03 02:18:59;;;;;;;2.67;1.20;;;14.30;99.90;;;;;;5062997;28;20048;-87
2021/08/03 02:21:26;;;;;;;3.90;1.40;;;14.00;99.90;;;;;;5051927;28;20064;-86
2021/08/03 02:23:52;;;;;;;4.07;1.25;;;14.30;99.90;;;;;;5050211;28;20416;-86
2021/08/03 02:26:18;;;;;;;4.28;1.40;;;14.20;99.90;;;;;;5051100;28;20025;-86
2021/08/03 02:28:44;;;;;;;2.45;1.10;;;14.20;99.90;;;;;;5066632;28;20017;-86
2021/08/03 02:31:30;;;;;;;3.33;1.30;;;14.50;99.90;;;;;;5054202;28;20025;-86
2021/08/03 02:34:14;;;;;;;5.95;1.33;;;14.30;99.90;;;;;;5071829;28;20078;-86
2021/08/03 02:36:45;;;;;;;3.78;1.50;;;14.30;99.90;;;;;;5066394;28;20032;-86
2021/08/03 02:39:13;;;;;;;4.40;1.73;;;14.30;99.90;;;;;;5066559;28;20115;-86
2021/08/03 02:41:39;;;;;;;3.83;1.20;;;14.20;99.90;;;;;;5066742;28;20025;-86
2021/08/03 02:44:06;;;;;;;4.85;1.20;;;14.30;99.90;;;;;;5066620;28;20028;-86
2021/08/03 02:46:32;;;;;;;2.63;0.93;;;14.30;99.90;;;;;;5066643;28;20021;-86
2021/08/03 02:49:06;;;;;;;2.35;1.00;;;14.20;99.90;;;;;;5059723;28;20020;-85
2021/08/03 02:51:35;;;;;;;4.05;1.10;;;14.20;99.90;;;;;;5070341;28;20512;-86
2021/08/03 02:54:13;;;;;;;4.05;0.95;;;14.20;99.90;;;;;;5068620;28;20020;-86
2021/08/03 02:56:40;;;;;;;2.00;0.80;;;14.20;99.90;;;;;;5051264;28;20029;-86
2021/08/03 02:59:09;;;;;;;4.15;1.30;;;14.00;99.90;;;;;;5066577;28;20044;-86
2021/08/03 03:01:37;;;;;;;2.17;1.00;;;14.10;99.90;;;;;;5067089;28;20485;-86
2021/08/03 03:04:29;;;;;;;2.10;1.02;;;14.30;99.90;;;;;;5065530;28;20032;-86
2021/08/03 03:07:02;;;;;;;3.60;1.27;;;14.10;99.90;;;;;;5040879;28;20060;-86
2021/08/03 03:09:30;;;;;;;3.75;1.10;;;14.50;99.90;;;;;;5069603;28;20115;-86
2021/08/03 03:11:56;;;;;;;2.55;0.90;;;14.20;99.90;;;;;;5069545;28;20043;-86
2021/08/03 03:14:24;;;;;;;4.13;1.20;;;14.10;99.90;;;;;;5071412;28;20024;-86
2021/08/03 03:16:52;;;;;;;3.83;0.98;;;14.20;99.90;;;;;;5057729;28;20017;-86
2021/08/03 03:19:19;;;;;;;2.95;0.90;;;14.40;99.90;;;;;;5049536;28;20075;-86
2021/08/03 03:21:47;;;;;;;2.05;1.00;;;14.10;99.90;;;;;;5051536;28;20031;-86
2021/08/03 03:24:14;;;;;;;3.95;1.20;;;14.10;99.90;;;;;;5069689;28;20392;-86
2021/08/03 03:26:41;;;;;;;4.25;1.10;;;14.60;99.90;;;;;;5066579;28;20082;-86
2021/08/03 03:29:08;;;;;;;4.03;1.27;;;14.10;99.90;;;;;;5052983;28;20036;-85
2021/08/03 03:31:34;;;;;;;4.18;1.27;;;14.10;99.90;;;;;;5055733;28;20067;-86
2021/08/03 03:34:07;;;;;;;4.88;1.70;;;14.00;99.90;;;;;;5053821;28;20032;-86
2021/08/03 03:36:35;;;;;;;2.97;1.35;;;13.90;99.90;;;;;;5053929;28;20025;-85
2021/08/03 03:39:03;;;;;;;3.28;1.30;;;13.90;99.90;;;;;;5056776;28;20021;-86
2021/08/03 03:41:31;;;;;;;3.97;1.30;;;13.80;99.90;;;;;;5060370;28;20052;-85
2021/08/03 03:43:57;;;;;;;3.78;1.42;;;13.90;99.90;;;;;;5059471;28;20045;-85
2021/08/03 03:46:28;;;;;;;4.22;1.35;;;14.00;99.90;;;;;;5054975;28;20708;-86
2021/08/03 03:49:03;;;;;;;4.50;1.33;;;13.90;99.90;;;;;;5070122;28;20082;-86
2021/08/03 03:51:31;;;;;;;6.13;1.60;;;13.70;99.90;;;;;;5055010;28;20029;-85
2021/08/03 03:54:02;;;;;;;4.72;1.40;;;13.80;99.90;;;;;;5070171;28;20031;-85
2021/08/03 03:56:39;;;;;;;2.67;1.10;;;13.70;99.90;;;;;;5054691;28;20052;-86
2021/08/03 03:59:05;;;;;;;7.28;1.40;;;13.90;99.90;;;;;;5069967;28;20033;-85
2021/08/03 04:01:32;;;;;;;3.88;1.48;;;13.80;99.90;;;;;;5054717;28;20017;-86
2021/08/03 04:04:03;;;;;;;5.70;1.45;;;13.90;99.90;;;;;;5054469;28;20025;-85
2021/08/03 04:06:29;;;;;;;4.28;1.30;;;14.10;99.90;;;;;;5054348;28;20021;-85
2021/08/03 04:08:55;;;;;;;3.28;1.00;;;14.00;99.90;;;;;;5054317;28;20096;-85
2021/08/03 04:11:20;;;;;;;3.83;1.15;;;13.90;99.90;;;;;;5073560;28;20082;-87
2021/08/03 04:13:50;;;;;;;2.55;1.05;;;13.80;99.90;;;;;;5056864;28;20028;-86
2021/08/03 04:16:16;;;;;;;3.90;1.20;;;13.50;99.90;;;;;;5069552;28;20079;-86
2021/08/03 04:18:41;;;;;;;2.97;1.02;;;13.90;99.90;;;;;;5069289;28;20478;-85
2021/08/03 04:21:07;;;;;;;4.32;1.40;;;13.80;99.90;;;;;;5068950;28;20064;-85
2021/08/03 04:23:33;;;;;;;2.83;1.05;;;13.90;99.90;;;;;;5072487;28;20323;-85
2021/08/03 04:25:59;;;;;;;5.50;1.40;;;13.90;99.90;;;;;;5072704;28;20127;-85
2021/08/03 04:28:25;;;;;;;3.80;1.10;;;13.80;99.90;;;;;;5072753;28;20610;-85
2021/08/03 04:30:50;;;;;;;4.80;1.17;;;13.70;99.90;;;;;;5072074;28;20041;-85
2021/08/03 04:33:16;;;;;;;2.72;1.10;;;13.80;99.90;;;;;;5072658;28;20032;-85
2021/08/03 04:35:41;;;;;;;4.63;1.10;;;13.80;99.90;;;;;;5073832;28;20146;-85
2021/08/03 04:38:07;;;;;;;5.07;1.10;;;13.30;99.90;;;;;;5054083;28;20516;-85
2021/08/03 04:40:33;;;;;;;4.30;1.05;;;13.80;99.90;;;;;;5052667;28;20115;-85
2021/08/03 04:42:59;;;;;;;2.67;1.00;;;13.80;99.90;;;;;;5054114;28;20028;-85
2021/08/03 04:45:25;;;;;;;4.25;1.50;;;13.80;99.90;;;;;;5052427;28;20032;-84
2021/08/03 04:47:53;;;;;;;5.55;1.10;;;13.90;99.90;;;;;;5065265;28;20386;-85
2021/08/03 04:50:27;;;;;;;2.70;1.20;;;13.90;99.90;;;;;;5053027;28;20075;-85
2021/08/03 04:52:54;;;;;;;4.72;1.48;;;13.90;99.90;;;;;;5052985;28;20024;-85
2021/08/03 04:55:20;;;;;;;4.30;1.40;;;13.50;99.90;;;;;;5067195;28;20024;-85
2021/08/03 04:57:46;;;;;;;4.75;1.40;;;14.00;99.90;;;;;;5057308;28;20493;-84
2021/08/03 05:00:14;;;;;;;3.92;1.40;;;14.10;99.90;;;;;;5066195;28;20028;-84
2021/08/03 05:02:40;;;;;;;4.72;1.30;;;14.10;99.90;;;;;;5068301;28;20032;-85
2021/08/03 05:05:08;;;;;;;9.82;1.90;;;14.10;99.90;;;;;;5071144;28;20086;-84
2021/08/03 05:07:34;;;;;;;2.78;1.33;;;14.20;99.90;;;;;;5070751;28;20016;-83
2021/08/03 05:10:09;;;;;;;3.03;1.30;;;14.20;99.90;;;;;;5063292;28;20040;-83
2021/08/03 05:12:36;;;;;;;6.13;1.45;;;14.30;99.90;;;;;;5050095;28;20040;-84
2021/08/03 05:15:01;;;;;;;4.93;1.20;;;14.30;99.90;;;;;;5051505;28;20028;-84
2021/08/03 05:17:28;;;;;;;3.17;1.58;;;14.30;99.90;;;;;;5051142;28;20025;-84
2021/08/03 05:19:54;;;;;;;6.45;1.42;;;14.30;99.90;;;;;;5051835;28;20044;-84
2021/08/03 05:22:20;;;;;;;4.53;1.40;;;14.40;99.90;;;;;;5069822;28;20029;-84
2021/08/03 05:24:45;;;;;;;2.92;1.33;;;14.40;99.90;;;;;;5071427;28;20024;-84
2021/08/03 05:27:11;;;;;;;4.80;1.55;;;14.30;99.90;;;;;;5070736;28;20024;-84
2021/08/03 05:29:36;;;;;;;4.15;1.45;;;14.50;99.90;;;;;;5073668;28;20025;-84
2021/08/03 05:32:02;;;;;;;2.50;1.30;;;14.40;99.90;;;;;;5064845;28;20096;-84
2021/08/03 05:34:28;;;;;;;6.68;2.35;;;14.40;99.90;;;;;;5065332;28;20025;-84
2021/08/03 05:36:54;;;;;;;3.88;1.55;;;14.60;99.90;;;;;;5068714;28;20032;-84
2021/08/03 05:39:20;;;;;;;3.47;1.45;;;14.40;99.90;;;;;;5070193;28;20169;-83
2021/08/03 05:41:45;;;;;;;3.58;1.30;;;14.40;99.90;;;;;;5086003;28;20512;-84
2021/08/03 05:44:11;;;;;;;3.80;1.33;;;14.40;99.90;;;;;;5074980;28;20029;-85
2021/08/03 05:46:36;;;;;;;7.47;1.50;;;14.30;99.90;;;;;;5070451;28;20037;-84
2021/08/03 05:49:03;;;;;;;4.88;1.63;;;14.30;99.90;;;;;;5055299;28;20025;-84
2021/08/03 05:51:29;;;;;;;4.22;1.48;;;14.00;99.90;;;;;;5069945;28;20112;-84
2021/08/03 05:53:54;;;;;;;6.75;1.63;;;14.30;99.90;;;;;;5068372;28;20573;-84
2021/08/03 05:56:20;;;;;;;3.63;1.38;;;14.10;99.90;;;;;;5078086;28;20035;-84
2021/08/03 05:58:45;;;;;;;7.07;2.97;;;14.20;99.90;;;;;;5082948;28;20039;-84
2021/08/03 06:01:11;;;;;;;5.93;1.80;;;14.40;99.90;;;;;;5078181;28;20059;-84
2021/08/03 06:03:36;;;;;;;4.47;1.65;;;14.50;99.90;;;;;;5080128;28;20080;-85
2021/08/03 06:06:05;;;;;;;5.82;1.25;;;14.70;99.90;;;;;;5071343;28;20630;-84
2021/08/03 06:08:31;;;;;;;5.32;1.52;;;14.60;99.90;;;;;;5068541;28;20100;-84
2021/08/03 06:10:58;;;;;;;4.15;1.10;;;14.70;99.90;;;;;;5071121;28;20060;-83
2021/08/03 06:13:26;;;;;;;3.42;1.20;;;14.90;99.90;;;;;;5068415;28;20036;-85
2021/08/03 06:15:53;;;;;;;6.43;1.55;;;14.40;99.90;;;;;;5063258;28;20024;-83
2021/08/03 06:18:30;;;;;;;5.63;1.55;;;14.80;99.90;;;;;;5070984;28;20035;-84
2021/08/03 06:20:57;;;;;;;8.50;2.13;;;15.00;99.90;;;;;;5066943;28;20850;-83
2021/08/03 06:23:23;;;;;;;10.25;2.00;;;14.50;99.90;;;;;;5061605;28;20443;-83
2021/08/03 06:25:53;;;;;;;4.68;1.80;;;14.80;99.90;;;;;;5052976;28;20082;-84
2021/08/03 06:28:22;;;;;;;6.07;1.58;;;14.80;99.90;;;;;;5064493;28;20036;-84
2021/08/03 06:30:49;;;;;;;3.50;1.50;;;14.80;99.90;;;;;;5065245;28;20025;-83
2021/08/03 06:33:21;;;;;;;3.40;1.52;;;14.70;99.90;;;;;;5059841;28;20036;-84
2021/08/03 06:35:47;;;;;;;;;;;14.60;99.90;;;;;;5068493;28;20392;-85
2021/08/03 06:38:14;;;;;;;6.10;1.67;;;14.70;99.90;;;;;;5060720;28;20357;-85
2021/08/03 06:40:46;;;;;;;4.60;1.50;;;14.70;99.90;;;;;;5063310;28;20035;-85
2021/08/03 06:43:17;;;;;;;5.28;1.73;;;15.10;99.90;;;;;;5065268;28;20476;-84
2021/08/03 06:45:48;;;;;;;4.63;1.60;;;14.90;99.90;;;;;;5069854;28;20036;-84
2021/08/03 06:48:27;;;;;;;3.83;1.55;;;15.60;99.90;;;;;;5062610;28;20025;-85
2021/08/03 06:50:57;;;;;;;4.22;1.35;;;15.80;99.90;;;;;;5072299;28;20033;-81
2021/08/03 06:53:26;;;;;;;2.50;0.85;;;15.60;99.90;;;;;;5067137;28;20024;-82
2021/08/03 06:55:53;;;;;;;3.22;0.93;;;15.80;99.90;;;;;;5066255;28;20054;-82
2021/08/03 06:58:28;;;;;;;2.30;0.90;;;16.20;99.90;;;;;;5069874;28;20606;-82
2021/08/03 07:00:57;;;;;;;4.97;1.20;;;16.50;99.90;;;;;;5068975;28;20028;-83
2021/08/03 07:03:25;;;;;;;3.92;1.35;;;17.00;99.90;;;;;;5060867;28;20498;-81
2021/08/03 07:05:56;;;;;;;3.13;1.00;;;16.70;99.90;;;;;;5067074;28;20434;-81
2021/08/03 07:08:22;;;;;;;5.05;1.10;;;16.60;99.90;;;;;;5065541;28;20404;-82
2021/08/03 07:10:52;;;;;;;4.00;1.10;;;16.60;99.90;;;;;;5063085;28;20025;-82
2021/08/03 07:13:18;;;;;;;5.05;1.02;;;16.40;99.90;;;;;;5062126;28;20066;-83
2021/08/03 07:15:46;;;;;;;2.88;0.98;;;16.20;99.90;;;;;;5064222;28;20435;-83
2021/08/03 07:18:12;;;;;;;9.63;2.00;;;16.40;99.90;;;;;;5068332;28;20393;-83
2021/08/03 07:20:42;;;;;;;6.63;1.08;;;16.60;99.90;;;;;;5068406;28;20103;-83
2021/08/03 07:23:12;;;;;;;3.10;0.95;;;16.80;99.90;;;;;;5069805;28;20031;-86
2021/08/03 07:25:37;;;;;;;3.08;0.73;;;17.10;99.90;;;;;;5066773;28;20031;-86
2021/08/03 07:28:03;;;;;;;3.13;0.90;;;17.10;99.90;;;;;;5064279;28;20029;-84
2021/08/03 07:30:29;;;;;;;2.50;0.68;;;17.10;99.90;;;;;;5070002;28;20548;-85
2021/08/03 07:32:55;;;;;;;2.97;0.85;;;17.30;99.90;;;;;;5061162;28;20021;-84
2021/08/03 07:35:21;;;;;;;4.47;0.77;;;17.30;99.90;;;;;;5058203;28;20017;-85
2021/08/03 07:37:46;;;;;;;8.48;0.82;;;17.40;99.90;;;;;;5068930;28;20047;-83
2021/08/03 07:40:14;;;;;;;2.67;0.70;;;17.40;99.90;;;;;;5065729;28;20442;-84
2021/08/03 07:42:39;;;;;;;5.57;0.77;;;17.40;99.90;;;;;;5063222;28;20405;-84
2021/08/03 07:45:06;;;;;;;4.40;0.68;;;17.50;99.90;;;;;;5070307;28;20025;-84
2021/08/03 07:47:34;;;;;;;2.97;0.68;;;17.40;99.90;;;;;;5060355;28;20028;-84
2021/08/03 07:50:00;;;;;;;1.95;0.75;;;17.40;99.90;;;;;;5069806;28;20436;-83
2021/08/03 07:52:26;;;;;;;3.65;0.90;;;17.50;99.90;;;;;;5072738;28;20040;-84
2021/08/03 07:54:51;;;;;;;4.05;0.70;;;17.60;99.90;;;;;;5067177;28;20066;-82
2021/08/03 07:57:17;;;;;;;5.43;1.05;;;17.70;99.90;;;;;;5070260;28;20622;-83
2021/08/03 07:59:43;;;;;;;4.70;1.02;;;17.70;99.90;;;;;;5070726;28;20020;-83
2021/08/03 08:02:09;;;;;;;3.30;0.85;;;17.90;99.90;;;;;;5070258;28;20056;-85
2021/08/03 08:04:34;;;;;;;2.75;1.25;;;18.00;99.90;;;;;;5046129;28;20060;-83
2021/08/03 08:07:00;;;;;;;4.38;0.77;;;18.10;99.90;;;;;;5058502;28;20543;-83
2021/08/03 08:09:25;;;;;;;1.67;0.60;;;18.10;99.90;;;;;;5060473;28;20035;-84
2021/08/03 08:11:51;;;;;;;2.08;0.60;;;18.20;99.90;;;;;;5050011;28;20110;-83
2021/08/03 08:14:16;;;;;;;1.25;0.68;;;18.10;99.90;;;;;;5064395;28;21531;-85
2021/08/03 08:16:42;;;;;;;7.35;0.85;;;18.10;99.90;;;;;;5067792;28;20029;-84
2021/08/03 08:19:08;;;;;;;1.52;0.60;;;18.20;99.90;;;;;;5060471;28;20107;-83
2021/08/03 08:21:33;;;;;;;4.78;0.70;;;18.10;99.90;;;;;;5060828;28;20025;-83
2021/08/03 08:24:04;;;;;;;1.92;1.13;;;18.00;99.90;;;;;;5076216;28;20046;-85
2021/08/03 08:26:30;;;;;;;2.03;0.70;;;18.10;99.90;;;;;;5075127;28;20094;-83
2021/08/03 08:28:56;;;;;;;2.83;0.65;;;18.10;99.90;;;;;;5071727;28;20032;-83
2021/08/03 08:31:21;;;;;;;5.65;0.90;;;18.00;99.90;;;;;;5075531;28;20527;-84
2021/08/03 08:33:47;;;;;;;2.55;1.08;;;18.10;99.90;;;;;;5076358;28;20381;-84
2021/08/03 08:36:12;;;;;;;4.57;1.05;;;18.10;99.90;;;;;;5071275;28;20554;-84
2021/08/03 08:38:38;;;;;;;2.58;0.75;;;18.10;99.90;;;;;;5068814;28;20085;-83
2021/08/03 08:41:04;;;;;;;2.42;0.70;;;18.10;99.90;;;;;;5065277;28;20086;-83
2021/08/03 08:43:30;;;;;;;1.75;0.68;;;18.30;99.90;;;;;;5051972;28;20033;-84
2021/08/03 08:45:56;;;;;;;3.15;0.90;;;18.20;99.90;;;;;;5059946;28;20059;-84
2021/08/03 08:48:22;;;;;;;3.20;0.70;;;18.00;99.90;;;;;;5056626;28;20037;-84
2021/08/03 08:50:54;;;;;;;3.60;0.80;;;18.30;99.90;;;;;;5059093;28;20025;-83
2021/08/03 08:53:23;;;;;;;;;;;18.80;99.90;;;;;;5076031;28;20064;-84
2021/08/03 08:55:48;;;;;;;3.15;0.55;;;18.60;99.90;;;;;;5064961;28;19919;-84
2021/08/03 08:58:14;;;;;;;1.17;0.50;;;18.80;99.90;;;;;;5071503;28;20120;-83
2021/08/03 09:00:40;;;;;;;3.55;0.90;;;18.60;99.90;;;;;;5063730;28;20054;-83
2021/08/03 09:03:06;;;;;;;1.90;0.77;;;18.70;99.90;;;;;;5070732;28;20041;-85
2021/08/03 09:05:34;;;;;;;1.73;0.52;;;18.80;99.90;;;;;;5073846;28;20032;-84
2021/08/03 09:08:02;;;;;;;2.83;0.70;;;18.80;99.90;;;;;;5073797;28;20403;-84
2021/08/03 09:10:35;;;;;;;3.20;0.90;;;18.80;99.90;;;;;;5069262;28;20040;-83
2021/08/03 09:13:07;;;;;;;2.55;0.77;;;18.70;99.90;;;;;;5071310;28;20020;-83
2021/08/03 09:15:36;;;;;;;3.00;0.80;;;18.80;99.90;;;;;;5069630;28;20019;-84
2021/08/03 09:18:30;;;;;;;4.22;0.93;;;19.00;99.90;;;;;;5076371;28;20047;-82
2021/08/03 09:20:57;;;;;;;4.25;0.90;;;19.10;99.90;;;;;;5077858;28;20035;-84
2021/08/03 09:23:47;;;;;;;1.92;0.80;;;19.30;99.90;;;;;;5069132;28;20064;-84
2021/08/03 09:26:15;;;;;;;1.33;0.55;;;19.30;99.90;;;;;;5069532;28;20051;-83
2021/08/03 09:29:04;;;;;;;2.30;0.47;;;19.30;99.90;;;;;;5070125;28;20450;-82
2021/08/03 09:31:31;;;;;;;1.80;1.00;;;19.10;99.90;;;;;;5057247;28;20029;-81
2021/08/03 09:33:59;;;;;;;2.67;0.75;;;18.90;99.90;;;;;;5065696;28;20036;-82
2021/08/03 09:36:47;;;;;;;2.40;0.77;;;18.80;99.90;;;;;;5065576;28;20024;-80
2021/08/03 09:39:35;;;;;;;1.20;0.60;;;18.70;99.90;;;;;;5064132;28;20067;-80
2021/08/03 09:42:23;;;;;;;3.53;0.70;;;18.70;99.90;;;;;;5065370;28;20028;-84
2021/08/03 09:44:59;;;;;;;1.65;0.82;;;18.80;99.90;;;;;;5067705;28;20020;-84
2021/08/03 09:47:28;;;;;;;3.03;0.80;;;18.90;99.90;;;;;;5063429;28;20537;-81
2021/08/03 09:49:56;;;;;;;1.88;0.60;;;18.80;99.90;;;;;;5065296;28;20017;-82
2021/08/03 09:52:25;;;;;;;3.28;0.60;;;18.30;99.90;;;;;;5068867;28;20115;-82
2021/08/03 09:55:25;;;;;;;1.38;0.50;;;18.30;99.90;;;;;;5069189;28;20031;-83
2021/08/03 09:58:04;;;;;;;2.42;0.60;;;18.10;99.90;;;;;;5069789;28;20063;-84
2021/08/03 10:00:34;;;;;;;3.00;0.60;;;17.90;99.90;;;;;;5073308;28;20055;-83
2021/08/03 10:03:01;;;;;;;1.58;0.55;;;17.70;99.90;;;;;;5072411;28;20069;-82
2021/08/03 10:05:28;;;;;;;2.35;0.80;;;17.70;99.90;;;;;;5072602;28;20089;-84
2021/08/03 10:07:57;;;;;;;2.08;0.57;;;17.60;99.90;;;;;;5073635;28;20452;-82
2021/08/03 10:10:24;;;;;;;2.05;0.68;;;17.60;99.90;;;;;;5072047;28;20016;-83
2021/08/03 10:12:50;;;;;;;3.08;0.65;;;17.50;99.90;;;;;;5055277;28;20512;-83
2021/08/03 10:15:15;;;;;;;1.15;0.57;;;17.50;99.90;;;;;;5074404;28;20023;-84
2021/08/03 10:17:41;;;;;;;2.40;0.68;;;17.50;99.90;;;;;;5074416;28;20439;-84
2021/08/03 10:20:11;;;;;;;2.95;0.70;;;17.50;99.90;;;;;;5063790;28;20424;-83
2021/08/03 10:22:44;;;;;;;2.92;0.73;;;17.40;99.90;;;;;;5060622;28;20029;-83
2021/08/03 10:25:13;;;;;;;2.17;0.70;;;17.40;99.90;;;;;;5064345;28;20020;-84
2021/08/03 10:27:49;;;;;;;2.38;0.60;;;17.50;99.90;;;;;;5060145;28;20017;-84
2021/08/03 10:30:35;;;;;;;5.57;0.70;;;17.50;99.90;;;;;;5054339;28;20524;-83
2021/08/03 10:33:15;;;;;;;2.55;0.60;;;17.50;99.90;;;;;;5051849;28;20025;-84
2021/08/03 10:35:49;;;;;;;2.67;0.50;;;17.50;99.90;;;;;;5053446;28;20104;-84
2021/08/03 10:38:28;;;;;;;2.88;0.70;;;17.50;99.90;;;;;;5068786;28;20361;-86
2021/08/03 10:41:00;;;;;;;1.33;0.60;;;17.10;99.90;;;;;;5076361;28;20021;-85
2021/08/03 10:43:35;;;;;;;;;;;17.70;99.90;;;;;;5064439;28;20396;-86
2021/08/03 10:46:07;;;;;;;1.55;0.70;;;17.60;99.90;;;;;;5076941;28;19915;-85
2021/08/03 10:48:40;;;;;;;1.48;0.60;;;17.80;99.90;;;;;;5058926;28;20032;-85
2021/08/03 10:51:17;;;;;;;1.88;0.80;;;18.00;99.90;;;;;;5066912;28;20025;-86
2021/08/03 10:54:07;;;;;;;2.13;0.60;;;18.40;99.90;;;;;;5065917;28;20036;-86
2021/08/03 10:56:56;;;;;;;0.80;0.43;;;18.80;99.90;;;;;;5066711;28;20091;-85
2021/08/03 10:59:33;;;;;;;1.85;0.60;;;18.70;99.90;;;;;;5081596;28;20099;-86
2021/08/03 11:02:01;;;;;;;1.80;0.80;;;18.80;99.90;;;;;;5066882;28;20028;-85
2021/08/03 11:04:42;;;;;;;2.95;0.60;;;18.70;99.90;;;;;;5066915;28;20048;-85
2021/08/03 11:07:31;;;;;;;2.50;0.60;;;18.60;99.90;;;;;;5068142;28;20040;-84
2021/08/03 11:09:58;;;;;;;3.25;0.75;;;18.50;99.90;;;;;;5066499;28;20083;-84
2021/08/03 11:12:39;;;;;;;1.92;0.80;;;18.60;99.90;;;;;;5073510;28;20475;-85
2021/08/03 11:15:23;;;;;;;1.80;0.73;;;18.70;99.90;;;;;;5059923;28;20493;-84
2021/08/03 11:17:55;;;;;;;2.35;0.93;;;18.80;99.90;;;;;;5055501;28;20084;-85
2021/08/03 11:20:42;;;;;;;1.92;0.93;;;19.00;99.90;;;;;;5053166;28;20043;-85
2021/08/03 11:23:15;;;;;;;2.45;1.05;;;19.10;99.90;;;;;;5061526;28;20086;-85
2021/08/03 11:25:43;;;;;;;2.97;1.00;;;19.10;99.90;;;;;;5067713;28;20029;-84
2021/08/03 11:28:16;;;;;;;2.25;0.80;;;19.20;99.90;;;;;;5069384;28;20036;-84
2021/08/03 11:30:43;;;;;;;3.45;0.82;;;19.30;99.90;;;;;;5073352;28;20038;-84
2021/08/03 11:33:11;;;;;;;1.38;0.70;;;19.30;99.90;;;;;;5073750;28;20086;-84
2021/08/03 11:35:37;;;;;;;2.47;0.90;;;19.40;99.90;;;;;;5072759;28;20070;-84
2021/08/03 11:38:08;;;;;;;2.60;0.90;;;19.60;99.90;;;;;;5072789;28;20050;-84
2021/08/03 11:40:35;;;;;;;2.38;0.90;;;19.90;99.90;;;;;;5074154;28;20108;-84
2021/08/03 11:43:03;;;;;;;3.53;0.90;;;20.20;99.90;;;;;;5072625;28;20492;-85
2021/08/03 11:45:29;;;;;;;2.85;1.05;;;20.40;99.90;;;;;;5075512;28;20105;-85
2021/08/03 11:48:00;;;;;;;2.80;1.00;;;20.50;99.90;;;;;;5074120;28;20024;-84
2021/08/03 11:50:29;;;;;;;2.63;1.23;;;20.60;99.90;;;;;;5075535;28;20568;-84
2021/08/03 11:53:16;;;;;;;2.72;1.35;;;20.60;99.90;;;;;;5066185;28;20071;-83
2021/08/03 11:55:56;;;;;;;2.83;1.15;;;20.80;99.90;;;;;;5064682;28;20042;-84
2021/08/03 11:58:26;;;;;;;4.95;1.00;;;20.80;99.90;;;;;;5076382;28;20017;-85
2021/08/03 12:00:53;;;;;;;3.45;1.10;;;20.50;99.90;;;;;;5081099;28;20122;-83
2021/08/03 12:03:41;;;;;;;2.45;1.30;;;20.20;99.90;;;;;;5074765;28;20048;-83
2021/08/03 12:06:07;;;;;;;3.10;1.10;;;20.00;99.90;;;;;;5063645;28;20032;-82
2021/08/03 12:08:39;;;;;;;2.35;0.82;;;19.80;99.90;;;;;;5088019;28;20036;-83
2021/08/03 12:11:05;;;;;;;2.15;0.80;;;19.60;99.90;;;;;;5086024;28;20029;-84
2021/08/03 12:13:37;;;;;;;3.80;1.00;;;19.50;99.90;;;;;;5070562;28;20029;-84
2021/08/03 12:16:03;;;;;;;;;;;19.20;99.90;;;;;;5078517;28;20024;-83
2021/08/03 12:18:37;;;;;;;3.78;0.90;;;19.20;99.90;;;;;;5077122;28;19988;-83
2021/08/03 12:21:03;;;;;;;1.35;0.63;;;19.30;99.90;;;;;;5077949;28;20475;-82
2021/08/03 12:23:30;;;;;;;1.25;0.55;;;19.10;99.90;;;;;;5073338;28;20055;-83
2021/08/03 12:26:03;;;;;;;1.90;0.60;;;19.10;99.90;;;;;;5081160;28;20042;-84
2021/08/03 12:28:33;;;;;;;2.03;0.77;;;19.10;99.90;;;;;;5087826;28;20024;-82
2021/08/03 12:31:21;;;;;;;2.42;0.70;;;19.20;99.90;;;;;;5087405;28;20032;-83
2021/08/03 12:33:48;;;;;;;1.60;0.60;;;19.00;99.90;;;;;;5077851;28;20024;-84
2021/08/03 12:36:15;;;;;;;1.88;0.65;;;18.80;99.90;;;;;;5080247;28;20040;-83
2021/08/03 12:39:03;;;;;;;1.63;0.70;;;18.80;99.90;;;;;;5060183;28;20021;-84
2021/08/03 12:41:30;;;;;;;1.90;0.70;;;18.70;99.90;;;;;;5085892;28;20028;-82
2021/08/03 12:44:00;;;;;;;1.00;0.50;;;18.80;99.90;;;;;;5085448;28;20036;-83
2021/08/03 12:46:37;;;;;;;1.40;0.47;;;19.10;99.90;;;;;;5071442;28;20065;-79
2021/08/03 12:49:04;;;;;;;1.30;0.50;;;19.40;99.90;;;;;;5075193;28;20031;-77
2021/08/03 12:51:31;;;;;;;1.60;0.50;;;19.50;99.90;;;;;;5075175;28;20594;-79
2021/08/03 12:54:12;;;;;;;0.85;0.50;;;19.60;99.90;;;;;;5075917;28;20036;-80
2021/08/03 12:56:55;;;;;;;1.35;0.60;;;19.90;99.90;;;;;;5068492;28;20029;-79
2021/08/03 12:59:47;;;;;;;1.27;0.50;;;20.10;99.90;;;;;;5055824;28;20037;-80
2021/08/03 13:02:14;;;;;;;1.55;0.50;;;20.30;99.90;;;;;;5060169;28;20087;-82